sensor_id;sensor_type;location;lat;lon;timestamp;P1;durP1;ratioP1;P2;durP2;ratioP2
74791;SDS011;63319;46.046;17.802;2022-10-23T00:02:23;4.05;;;2.28;;
74791;SDS011;63319;46.046;17.802;2022-10-23T00:05:26;3.88;;;2.20;;
74791;SDS011;63319;46.046;17.802;2022-10-23T00:08:30;4.43;;;2.30;;
74791;SDS011;63319;46.046;17.802;2022-10-23T00:11:33;4.67;;;2.17;;
74791;SDS011;63319;46.046;17.802;2022-10-23T00:14:36;4.43;;;2.27;;
74791;SDS011;63319;46.046;17.802;2022-10-23T00:17:39;3.58;;;1.98;;
74791;SDS011;63319;46.046;17.802;2022-10-23T00:20:42;3.85;;;1.63;;
74791;SDS011;63319;46.046;17.802;2022-10-23T00:23:45;4.70;;;2.50;;
74791;SDS011;63319;46.046;17.802;2022-10-23T00:26:48;4.57;;;2.07;;
74791;SDS011;63319;46.046;17.802;2022-10-23T00:29:52;4.23;;;2.50;;
74791;SDS011;63319;46.046;17.802;2022-10-23T00:32:54;4.18;;;1.92;;
74791;SDS011;63319;46.046;17.802;2022-10-23T00:35:57;4.35;;;2.10;;
74791;SDS011;63319;46.046;17.802;2022-10-23T00:39:00;4.38;;;2.03;;
74791;SDS011;63319;46.046;17.802;2022-10-23T00:42:03;4.90;;;2.30;;
74791;SDS011;63319;46.046;17.802;2022-10-23T00:45:11;4.13;;;1.90;;
74791;SDS011;63319;46.046;17.802;2022-10-23T00:48:25;4.30;;;2.00;;
74791;SDS011;63319;46.046;17.802;2022-10-23T00:51:31;3.47;;;1.88;;
74791;SDS011;63319;46.046;17.802;2022-10-23T00:54:39;3.22;;;1.98;;
74791;SDS011;63319;46.046;17.802;2022-10-23T00:57:44;3.80;;;1.97;;
74791;SDS011;63319;46.046;17.802;2022-10-23T01:00:50;4.00;;;2.10;;
74791;SDS011;63319;46.046;17.802;2022-10-23T01:03:55;3.85;;;2.03;;
74791;SDS011;63319;46.046;17.802;2022-10-23T01:07:04;4.57;;;1.70;;
74791;SDS011;63319;46.046;17.802;2022-10-23T01:10:14;4.53;;;2.03;;
74791;SDS011;63319;46.046;17.802;2022-10-23T01:33:16;4.20;;;1.87;;
74791;SDS011;63319;46.046;17.802;2022-10-23T01:36:27;4.70;;;2.47;;
74791;SDS011;63319;46.046;17.802;2022-10-23T01:39:35;4.07;;;2.10;;
74791;SDS011;63319;46.046;17.802;2022-10-23T01:42:43;4.78;;;2.13;;
74791;SDS011;63319;46.046;17.802;2022-10-23T01:45:51;3.90;;;2.03;;
74791;SDS011;63319;46.046;17.802;2022-10-23T01:48:58;3.83;;;2.00;;
74791;SDS011;63319;46.046;17.802;2022-10-23T01:52:02;4.43;;;2.25;;
74791;SDS011;63319;46.046;17.802;2022-10-23T01:55:11;4.25;;;2.10;;
74791;SDS011;63319;46.046;17.802;2022-10-23T01:58:16;3.42;;;1.95;;
74791;SDS011;63319;46.046;17.802;2022-10-23T02:01:23;4.70;;;2.17;;
74791;SDS011;63319;46.046;17.802;2022-10-23T02:04:30;3.73;;;2.00;;
74791;SDS011;63319;46.046;17.802;2022-10-23T02:07:37;3.42;;;1.80;;
74791;SDS011;63319;46.046;17.802;2022-10-23T02:14:10;4.03;;;2.08;;
74791;SDS011;63319;46.046;17.802;2022-10-23T02:21:04;3.60;;;1.93;;
74791;SDS011;63319;46.046;17.802;2022-10-23T02:24:12;4.03;;;2.03;;
74791;SDS011;63319;46.046;17.802;2022-10-23T02:27:20;3.90;;;1.95;;
74791;SDS011;63319;46.046;17.802;2022-10-23T02:30:31;4.38;;;1.85;;
74791;SDS011;63319;46.046;17.802;2022-10-23T02:33:43;4.03;;;2.00;;
74791;SDS011;63319;46.046;17.802;2022-10-23T02:36:48;4.10;;;2.30;;
74791;SDS011;63319;46.046;17.802;2022-10-23T02:39:54;3.92;;;1.77;;
74791;SDS011;63319;46.046;17.802;2022-10-23T02:42:57;3.50;;;1.60;;
74791;SDS011;63319;46.046;17.802;2022-10-23T02:49:48;3.30;;;1.70;;
74791;SDS011;63319;46.046;17.802;2022-10-23T02:57:08;3.92;;;2.08;;
74791;SDS011;63319;46.046;17.802;2022-10-23T03:00:34;3.58;;;1.65;;
74791;SDS011;63319;46.046;17.802;2022-10-23T03:03:41;3.85;;;1.80;;
74791;SDS011;63319;46.046;17.802;2022-10-23T03:06:50;3.23;;;1.70;;
74791;SDS011;63319;46.046;17.802;2022-10-23T03:09:53;5.13;;;2.47;;
74791;SDS011;63319;46.046;17.802;2022-10-23T03:12:56;4.07;;;2.03;;
74791;SDS011;63319;46.046;17.802;2022-10-23T03:15:59;4.28;;;2.20;;
74791;SDS011;63319;46.046;17.802;2022-10-23T03:19:02;4.28;;;2.20;;
74791;SDS011;63319;46.046;17.802;2022-10-23T03:22:05;4.97;;;2.10;;
74791;SDS011;63319;46.046;17.802;2022-10-23T03:25:08;3.90;;;2.03;;
74791;SDS011;63319;46.046;17.802;2022-10-23T03:28:10;4.00;;;1.90;;
74791;SDS011;63319;46.046;17.802;2022-10-23T03:31:13;4.18;;;2.00;;
74791;SDS011;63319;46.046;17.802;2022-10-23T03:34:23;3.55;;;1.65;;
74791;SDS011;63319;46.046;17.802;2022-10-23T03:37:44;3.67;;;1.90;;
74791;SDS011;63319;46.046;17.802;2022-10-23T03:40:48;3.77;;;2.00;;
74791;SDS011;63319;46.046;17.802;2022-10-23T03:43:51;4.05;;;2.08;;
74791;SDS011;63319;46.046;17.802;2022-10-23T03:46:53;3.55;;;1.83;;
74791;SDS011;63319;46.046;17.802;2022-10-23T03:50:00;3.40;;;2.05;;
74791;SDS011;63319;46.046;17.802;2022-10-23T03:53:06;4.07;;;1.80;;
74791;SDS011;63319;46.046;17.802;2022-10-23T03:56:08;3.73;;;1.93;;
74791;SDS011;63319;46.046;17.802;2022-10-23T03:59:14;3.47;;;1.80;;
74791;SDS011;63319;46.046;17.802;2022-10-23T04:02:18;3.75;;;1.90;;
74791;SDS011;63319;46.046;17.802;2022-10-23T04:05:20;4.00;;;2.00;;
74791;SDS011;63319;46.046;17.802;2022-10-23T04:08:29;2.87;;;1.50;;
74791;SDS011;63319;46.046;17.802;2022-10-23T04:11:32;3.67;;;2.00;;
74791;SDS011;63319;46.046;17.802;2022-10-23T04:14:35;3.63;;;1.90;;
74791;SDS011;63319;46.046;17.802;2022-10-23T04:17:37;4.35;;;2.22;;
74791;SDS011;63319;46.046;17.802;2022-10-23T04:20:41;4.38;;;2.00;;
74791;SDS011;63319;46.046;17.802;2022-10-23T04:23:45;3.40;;;1.80;;
74791;SDS011;63319;46.046;17.802;2022-10-23T04:26:52;4.17;;;1.93;;
74791;SDS011;63319;46.046;17.802;2022-10-23T04:29:56;4.13;;;1.98;;
74791;SDS011;63319;46.046;17.802;2022-10-23T04:33:00;4.53;;;1.80;;
74791;SDS011;63319;46.046;17.802;2022-10-23T04:36:03;3.25;;;2.00;;
74791;SDS011;63319;46.046;17.802;2022-10-23T04:39:07;2.97;;;1.63;;
74791;SDS011;63319;46.046;17.802;2022-10-23T04:42:10;4.47;;;2.03;;
74791;SDS011;63319;46.046;17.802;2022-10-23T04:45:14;2.92;;;1.70;;
74791;SDS011;63319;46.046;17.802;2022-10-23T04:48:17;3.42;;;1.80;;
74791;SDS011;63319;46.046;17.802;2022-10-23T04:51:49;2.92;;;1.55;;
74791;SDS011;63319;46.046;17.802;2022-10-23T04:55:10;3.57;;;2.00;;
74791;SDS011;63319;46.046;17.802;2022-10-23T04:58:18;3.37;;;1.63;;
74791;SDS011;63319;46.046;17.802;2022-10-23T05:01:21;3.28;;;1.73;;
74791;SDS011;63319;46.046;17.802;2022-10-23T05:04:23;4.03;;;2.20;;
74791;SDS011;63319;46.046;17.802;2022-10-23T05:07:45;3.17;;;1.70;;
74791;SDS011;63319;46.046;17.802;2022-10-23T05:11:26;3.80;;;2.20;;
74791;SDS011;63319;46.046;17.802;2022-10-23T05:14:29;3.47;;;2.00;;
74791;SDS011;63319;46.046;17.802;2022-10-23T05:17:33;3.08;;;1.55;;
74791;SDS011;63319;46.046;17.802;2022-10-23T05:20:38;3.92;;;1.90;;
74791;SDS011;63319;46.046;17.802;2022-10-23T05:23:44;3.28;;;1.88;;
74791;SDS011;63319;46.046;17.802;2022-10-23T05:26:48;3.27;;;1.77;;
74791;SDS011;63319;46.046;17.802;2022-10-23T05:29:55;2.60;;;1.60;;
74791;SDS011;63319;46.046;17.802;2022-10-23T05:33:00;3.75;;;1.65;;
74791;SDS011;63319;46.046;17.802;2022-10-23T05:36:10;3.47;;;1.70;;
74791;SDS011;63319;46.046;17.802;2022-10-23T05:39:14;2.72;;;1.77;;
74791;SDS011;63319;46.046;17.802;2022-10-23T05:42:19;3.43;;;1.67;;
74791;SDS011;63319;46.046;17.802;2022-10-23T05:45:22;2.93;;;1.47;;
74791;SDS011;63319;46.046;17.802;2022-10-23T05:48:43;3.28;;;1.83;;
74791;SDS011;63319;46.046;17.802;2022-10-23T05:52:04;2.42;;;1.38;;
74791;SDS011;63319;46.046;17.802;2022-10-23T05:55:20;2.78;;;1.55;;
74791;SDS011;63319;46.046;17.802;2022-10-23T05:58:23;3.27;;;1.67;;
74791;SDS011;63319;46.046;17.802;2022-10-23T06:01:49;3.53;;;2.07;;
74791;SDS011;63319;46.046;17.802;2022-10-23T06:05:03;5.03;;;1.80;;
74791;SDS011;63319;46.046;17.802;2022-10-23T06:08:23;3.75;;;1.85;;
74791;SDS011;63319;46.046;17.802;2022-10-23T06:11:27;3.53;;;1.85;;
74791;SDS011;63319;46.046;17.802;2022-10-23T06:14:34;3.13;;;1.60;;
74791;SDS011;63319;46.046;17.802;2022-10-23T06:17:37;3.30;;;1.80;;
74791;SDS011;63319;46.046;17.802;2022-10-23T06:20:40;3.72;;;1.85;;
74791;SDS011;63319;46.046;17.802;2022-10-23T06:23:48;3.47;;;1.60;;
74791;SDS011;63319;46.046;17.802;2022-10-23T06:27:14;3.10;;;1.63;;
74791;SDS011;63319;46.046;17.802;2022-10-23T06:30:18;3.37;;;1.80;;
74791;SDS011;63319;46.046;17.802;2022-10-23T06:33:23;2.60;;;1.40;;
74791;SDS011;63319;46.046;17.802;2022-10-23T06:36:26;3.40;;;1.63;;
74791;SDS011;63319;46.046;17.802;2022-10-23T06:39:38;3.83;;;1.92;;
74791;SDS011;63319;46.046;17.802;2022-10-23T06:42:47;2.60;;;1.40;;
74791;SDS011;63319;46.046;17.802;2022-10-23T06:46:10;3.17;;;1.60;;
74791;SDS011;63319;46.046;17.802;2022-10-23T06:49:31;3.07;;;1.60;;
74791;SDS011;63319;46.046;17.802;2022-10-23T06:52:36;2.75;;;1.58;;
74791;SDS011;63319;46.046;17.802;2022-10-23T06:55:57;3.55;;;1.85;;
74791;SDS011;63319;46.046;17.802;2022-10-23T06:59:01;3.00;;;1.70;;
74791;SDS011;63319;46.046;17.802;2022-10-23T07:02:04;3.53;;;1.83;;
74791;SDS011;63319;46.046;17.802;2022-10-23T07:05:08;3.63;;;1.93;;
74791;SDS011;63319;46.046;17.802;2022-10-23T07:08:16;2.90;;;1.38;;
74791;SDS011;63319;46.046;17.802;2022-10-23T07:11:21;3.08;;;1.42;;
74791;SDS011;63319;46.046;17.802;2022-10-23T07:14:25;3.22;;;1.50;;
74791;SDS011;63319;46.046;17.802;2022-10-23T07:17:28;3.57;;;1.80;;
74791;SDS011;63319;46.046;17.802;2022-10-23T07:20:31;3.43;;;1.93;;
74791;SDS011;63319;46.046;17.802;2022-10-23T07:23:34;3.38;;;1.70;;
74791;SDS011;63319;46.046;17.802;2022-10-23T07:26:39;2.95;;;1.58;;
74791;SDS011;63319;46.046;17.802;2022-10-23T07:29:43;4.70;;;1.90;;
74791;SDS011;63319;46.046;17.802;2022-10-23T07:32:45;2.70;;;1.67;;
74791;SDS011;63319;46.046;17.802;2022-10-23T07:36:08;2.33;;;1.40;;
74791;SDS011;63319;46.046;17.802;2022-10-23T07:39:11;3.70;;;1.90;;
74791;SDS011;63319;46.046;17.802;2022-10-23T07:42:21;2.60;;;1.20;;
74791;SDS011;63319;46.046;17.802;2022-10-23T07:45:24;2.92;;;1.70;;
74791;SDS011;63319;46.046;17.802;2022-10-23T07:48:28;3.60;;;1.80;;
74791;SDS011;63319;46.046;17.802;2022-10-23T07:51:34;2.87;;;1.47;;
74791;SDS011;63319;46.046;17.802;2022-10-23T07:54:54;3.28;;;1.52;;
74791;SDS011;63319;46.046;17.802;2022-10-23T07:57:59;2.90;;;1.40;;
74791;SDS011;63319;46.046;17.802;2022-10-23T08:01:17;3.38;;;1.70;;
74791;SDS011;63319;46.046;17.802;2022-10-23T08:04:22;2.27;;;1.50;;
74791;SDS011;63319;46.046;17.802;2022-10-23T08:07:33;2.67;;;1.27;;
74791;SDS011;63319;46.046;17.802;2022-10-23T08:10:36;2.47;;;1.50;;
74791;SDS011;63319;46.046;17.802;2022-10-23T08:13:40;2.88;;;1.40;;
74791;SDS011;63319;46.046;17.802;2022-10-23T08:16:46;3.08;;;1.70;;
74791;SDS011;63319;46.046;17.802;2022-10-23T08:19:49;2.40;;;1.53;;
74791;SDS011;63319;46.046;17.802;2022-10-23T08:22:53;3.00;;;1.67;;
74791;SDS011;63319;46.046;17.802;2022-10-23T08:26:00;3.25;;;1.60;;
74791;SDS011;63319;46.046;17.802;2022-10-23T08:29:05;2.67;;;1.55;;
74791;SDS011;63319;46.046;17.802;2022-10-23T08:32:09;2.85;;;1.30;;
74791;SDS011;63319;46.046;17.802;2022-10-23T08:35:22;3.83;;;1.63;;
74791;SDS011;63319;46.046;17.802;2022-10-23T08:38:25;3.30;;;1.60;;
74791;SDS011;63319;46.046;17.802;2022-10-23T08:41:29;3.38;;;1.85;;
74791;SDS011;63319;46.046;17.802;2022-10-23T08:44:57;2.58;;;1.38;;
74791;SDS011;63319;46.046;17.802;2022-10-23T08:48:17;3.20;;;1.75;;
74791;SDS011;63319;46.046;17.802;2022-10-23T08:51:48;3.10;;;1.70;;
74791;SDS011;63319;46.046;17.802;2022-10-23T08:54:55;3.50;;;1.80;;
74791;SDS011;63319;46.046;17.802;2022-10-23T08:58:04;4.07;;;1.80;;
74791;SDS011;63319;46.046;17.802;2022-10-23T09:04:46;3.72;;;1.58;;
74791;SDS011;63319;46.046;17.802;2022-10-23T09:18:10;3.15;;;1.77;;
74791;SDS011;63319;46.046;17.802;2022-10-23T09:21:15;3.58;;;1.80;;
74791;SDS011;63319;46.046;17.802;2022-10-23T09:24:18;3.03;;;1.50;;
74791;SDS011;63319;46.046;17.802;2022-10-23T09:27:23;3.40;;;1.60;;
74791;SDS011;63319;46.046;17.802;2022-10-23T09:33:51;2.67;;;1.70;;
74791;SDS011;63319;46.046;17.802;2022-10-23T09:41:00;2.57;;;1.50;;
74791;SDS011;63319;46.046;17.802;2022-10-23T09:47:14;3.50;;;1.70;;
74791;SDS011;63319;46.046;17.802;2022-10-23T09:50:21;3.10;;;1.30;;
74791;SDS011;63319;46.046;17.802;2022-10-23T09:56:33;3.43;;;1.70;;
74791;SDS011;63319;46.046;17.802;2022-10-23T09:59:41;3.60;;;1.90;;
74791;SDS011;63319;46.046;17.802;2022-10-23T10:03:04;3.53;;;1.70;;
74791;SDS011;63319;46.046;17.802;2022-10-23T10:06:22;3.92;;;2.08;;
74791;SDS011;63319;46.046;17.802;2022-10-23T10:09:27;3.67;;;1.60;;
74791;SDS011;63319;46.046;17.802;2022-10-23T10:16:31;2.80;;;1.70;;
74791;SDS011;63319;46.046;17.802;2022-10-23T10:19:45;3.63;;;1.53;;
74791;SDS011;63319;46.046;17.802;2022-10-23T10:22:57;2.72;;;1.55;;
74791;SDS011;63319;46.046;17.802;2022-10-23T10:29:24;3.27;;;1.63;;
74791;SDS011;63319;46.046;17.802;2022-10-23T10:36:39;2.17;;;1.33;;
74791;SDS011;63319;46.046;17.802;2022-10-23T10:39:47;3.25;;;1.25;;
74791;SDS011;63319;46.046;17.802;2022-10-23T10:43:22;3.03;;;1.77;;
74791;SDS011;63319;46.046;17.802;2022-10-23T10:50:17;2.10;;;1.30;;
74791;SDS011;63319;46.046;17.802;2022-10-23T10:53:48;3.35;;;1.70;;
74791;SDS011;63319;46.046;17.802;2022-10-23T10:57:01;3.00;;;1.60;;
74791;SDS011;63319;46.046;17.802;2022-10-23T11:00:12;2.35;;;1.42;;
74791;SDS011;63319;46.046;17.802;2022-10-23T11:03:32;2.93;;;1.50;;
74791;SDS011;63319;46.046;17.802;2022-10-23T11:06:41;3.30;;;1.80;;
74791;SDS011;63319;46.046;17.802;2022-10-23T11:09:47;2.70;;;1.50;;
74791;SDS011;63319;46.046;17.802;2022-10-23T11:12:51;2.72;;;1.42;;
74791;SDS011;63319;46.046;17.802;2022-10-23T11:15:55;3.15;;;1.73;;
74791;SDS011;63319;46.046;17.802;2022-10-23T11:22:23;3.60;;;1.97;;
74791;SDS011;63319;46.046;17.802;2022-10-23T11:25:44;2.97;;;1.50;;
74791;SDS011;63319;46.046;17.802;2022-10-23T11:39:18;3.13;;;1.50;;
74791;SDS011;63319;46.046;17.802;2022-10-23T11:42:29;3.53;;;1.52;;
74791;SDS011;63319;46.046;17.802;2022-10-23T11:45:50;3.35;;;1.60;;
74791;SDS011;63319;46.046;17.802;2022-10-23T11:48:53;3.58;;;1.85;;
74791;SDS011;63319;46.046;17.802;2022-10-23T11:52:00;2.83;;;1.67;;
74791;SDS011;63319;46.046;17.802;2022-10-23T11:55:21;2.90;;;1.63;;
74791;SDS011;63319;46.046;17.802;2022-10-23T11:58:28;3.13;;;1.63;;
74791;SDS011;63319;46.046;17.802;2022-10-23T12:01:43;3.25;;;1.55;;
74791;SDS011;63319;46.046;17.802;2022-10-23T12:04:48;2.72;;;1.42;;
74791;SDS011;63319;46.046;17.802;2022-10-23T12:07:55;2.97;;;1.40;;
74791;SDS011;63319;46.046;17.802;2022-10-23T12:11:00;2.73;;;1.40;;
74791;SDS011;63319;46.046;17.802;2022-10-23T12:14:02;3.55;;;1.70;;
74791;SDS011;63319;46.046;17.802;2022-10-23T12:20:29;3.15;;;1.80;;
74791;SDS011;63319;46.046;17.802;2022-10-23T12:23:57;2.97;;;1.53;;
74791;SDS011;63319;46.046;17.802;2022-10-23T12:27:32;3.53;;;1.80;;
74791;SDS011;63319;46.046;17.802;2022-10-23T12:40:44;3.07;;;1.50;;
74791;SDS011;63319;46.046;17.802;2022-10-23T12:47:19;3.25;;;1.80;;
74791;SDS011;63319;46.046;17.802;2022-10-23T12:50:28;2.95;;;1.48;;
74791;SDS011;63319;46.046;17.802;2022-10-23T12:53:33;3.35;;;1.65;;
74791;SDS011;63319;46.046;17.802;2022-10-23T12:56:36;3.13;;;1.60;;
74791;SDS011;63319;46.046;17.802;2022-10-23T12:59:40;3.27;;;1.57;;
74791;SDS011;63319;46.046;17.802;2022-10-23T13:02:44;3.03;;;1.40;;
74791;SDS011;63319;46.046;17.802;2022-10-23T13:05:49;2.33;;;1.30;;
74791;SDS011;63319;46.046;17.802;2022-10-23T13:08:54;3.55;;;1.77;;
74791;SDS011;63319;46.046;17.802;2022-10-23T13:12:31;3.10;;;1.63;;
74791;SDS011;63319;46.046;17.802;2022-10-23T13:15:42;3.90;;;1.70;;
74791;SDS011;63319;46.046;17.802;2022-10-23T13:18:47;3.42;;;1.88;;
74791;SDS011;63319;46.046;17.802;2022-10-23T13:21:51;3.08;;;1.63;;
74791;SDS011;63319;46.046;17.802;2022-10-23T13:24:54;3.00;;;1.80;;
74791;SDS011;63319;46.046;17.802;2022-10-23T13:34:17;2.70;;;1.27;;
74791;SDS011;63319;46.046;17.802;2022-10-23T13:37:32;4.55;;;1.60;;
74791;SDS011;63319;46.046;17.802;2022-10-23T13:40:36;3.10;;;1.88;;
74791;SDS011;63319;46.046;17.802;2022-10-23T13:43:40;3.47;;;1.90;;
74791;SDS011;63319;46.046;17.802;2022-10-23T13:46:44;3.73;;;1.90;;
74791;SDS011;63319;46.046;17.802;2022-10-23T13:49:48;4.15;;;1.60;;
74791;SDS011;63319;46.046;17.802;2022-10-23T13:52:52;3.53;;;1.73;;
74791;SDS011;63319;46.046;17.802;2022-10-23T13:55:55;3.75;;;2.20;;
74791;SDS011;63319;46.046;17.802;2022-10-23T13:59:00;3.97;;;1.77;;
74791;SDS011;63319;46.046;17.802;2022-10-23T14:02:05;3.53;;;1.90;;
74791;SDS011;63319;46.046;17.802;2022-10-23T14:05:21;2.97;;;1.50;;
74791;SDS011;63319;46.046;17.802;2022-10-23T14:08:25;3.85;;;1.98;;
74791;SDS011;63319;46.046;17.802;2022-10-23T14:11:29;4.05;;;2.17;;
74791;SDS011;63319;46.046;17.802;2022-10-23T14:14:38;3.67;;;1.97;;
74791;SDS011;63319;46.046;17.802;2022-10-23T14:17:43;3.40;;;1.80;;
74791;SDS011;63319;46.046;17.802;2022-10-23T14:20:46;3.40;;;1.90;;
74791;SDS011;63319;46.046;17.802;2022-10-23T14:23:51;3.50;;;1.70;;
74791;SDS011;63319;46.046;17.802;2022-10-23T14:26:55;3.92;;;1.95;;
74791;SDS011;63319;46.046;17.802;2022-10-23T14:29:59;3.30;;;1.73;;
74791;SDS011;63319;46.046;17.802;2022-10-23T14:33:04;3.67;;;2.03;;
74791;SDS011;63319;46.046;17.802;2022-10-23T14:36:07;4.43;;;2.20;;
74791;SDS011;63319;46.046;17.802;2022-10-23T14:39:11;3.25;;;1.65;;
74791;SDS011;63319;46.046;17.802;2022-10-23T14:42:15;3.58;;;1.65;;
74791;SDS011;63319;46.046;17.802;2022-10-23T14:45:19;3.47;;;1.80;;
74791;SDS011;63319;46.046;17.802;2022-10-23T14:48:22;3.87;;;2.07;;
74791;SDS011;63319;46.046;17.802;2022-10-23T14:51:27;4.05;;;2.17;;
74791;SDS011;63319;46.046;17.802;2022-10-23T14:54:32;4.25;;;1.95;;
74791;SDS011;63319;46.046;17.802;2022-10-23T14:57:37;4.35;;;2.28;;
74791;SDS011;63319;46.046;17.802;2022-10-23T15:00:42;4.03;;;2.30;;
74791;SDS011;63319;46.046;17.802;2022-10-23T15:03:46;4.27;;;1.60;;
74791;SDS011;63319;46.046;17.802;2022-10-23T15:06:53;3.42;;;1.90;;
74791;SDS011;63319;46.046;17.802;2022-10-23T15:09:56;5.07;;;2.08;;
74791;SDS011;63319;46.046;17.802;2022-10-23T15:13:00;3.90;;;2.20;;
74791;SDS011;63319;46.046;17.802;2022-10-23T15:16:04;4.47;;;2.20;;
74791;SDS011;63319;46.046;17.802;2022-10-23T15:19:10;4.47;;;1.90;;
74791;SDS011;63319;46.046;17.802;2022-10-23T15:22:22;3.55;;;2.10;;
74791;SDS011;63319;46.046;17.802;2022-10-23T15:25:27;4.45;;;2.30;;
74791;SDS011;63319;46.046;17.802;2022-10-23T15:28:33;4.93;;;2.33;;
74791;SDS011;63319;46.046;17.802;2022-10-23T15:34:42;3.93;;;2.20;;
74791;SDS011;63319;46.046;17.802;2022-10-23T15:37:45;4.20;;;2.28;;
74791;SDS011;63319;46.046;17.802;2022-10-23T15:40:49;3.83;;;1.90;;
74791;SDS011;63319;46.046;17.802;2022-10-23T15:43:52;4.68;;;2.45;;
74791;SDS011;63319;46.046;17.802;2022-10-23T15:46:56;3.57;;;1.90;;
74791;SDS011;63319;46.046;17.802;2022-10-23T15:50:00;4.87;;;2.43;;
74791;SDS011;63319;46.046;17.802;2022-10-23T15:53:03;3.58;;;2.03;;
74791;SDS011;63319;46.046;17.802;2022-10-23T15:56:07;4.63;;;2.53;;
74791;SDS011;63319;46.046;17.802;2022-10-23T15:59:11;3.25;;;1.90;;
74791;SDS011;63319;46.046;17.802;2022-10-23T16:02:14;5.13;;;2.27;;
74791;SDS011;63319;46.046;17.802;2022-10-23T16:05:19;4.27;;;2.27;;
74791;SDS011;63319;46.046;17.802;2022-10-23T16:08:23;4.40;;;2.63;;
74791;SDS011;63319;46.046;17.802;2022-10-23T16:11:29;4.10;;;2.05;;
74791;SDS011;63319;46.046;17.802;2022-10-23T16:14:33;4.63;;;2.35;;
74791;SDS011;63319;46.046;17.802;2022-10-23T16:17:37;4.87;;;2.50;;
74791;SDS011;63319;46.046;17.802;2022-10-23T16:20:42;5.00;;;2.30;;
74791;SDS011;63319;46.046;17.802;2022-10-23T16:23:49;4.40;;;2.35;;
74791;SDS011;63319;46.046;17.802;2022-10-23T16:26:53;4.07;;;2.15;;
74791;SDS011;63319;46.046;17.802;2022-10-23T16:29:59;4.82;;;2.40;;
74791;SDS011;63319;46.046;17.802;2022-10-23T16:33:03;4.80;;;2.33;;
74791;SDS011;63319;46.046;17.802;2022-10-23T16:36:10;6.20;;;3.03;;
74791;SDS011;63319;46.046;17.802;2022-10-23T16:39:33;4.65;;;2.78;;
74791;SDS011;63319;46.046;17.802;2022-10-23T16:42:58;5.03;;;2.40;;
74791;SDS011;63319;46.046;17.802;2022-10-23T16:46:14;5.00;;;2.10;;
74791;SDS011;63319;46.046;17.802;2022-10-23T16:49:21;4.50;;;2.13;;
74791;SDS011;63319;46.046;17.802;2022-10-23T16:52:26;4.63;;;2.10;;
74791;SDS011;63319;46.046;17.802;2022-10-23T16:55:33;5.03;;;2.80;;
74791;SDS011;63319;46.046;17.802;2022-10-23T16:58:37;5.18;;;2.50;;
74791;SDS011;63319;46.046;17.802;2022-10-23T17:01:45;4.88;;;2.42;;
74791;SDS011;63319;46.046;17.802;2022-10-23T17:04:49;4.10;;;2.27;;
74791;SDS011;63319;46.046;17.802;2022-10-23T17:07:53;4.30;;;2.30;;
74791;SDS011;63319;46.046;17.802;2022-10-23T17:14:16;4.82;;;2.50;;
74791;SDS011;63319;46.046;17.802;2022-10-23T17:17:22;4.80;;;2.50;;
74791;SDS011;63319;46.046;17.802;2022-10-23T17:20:26;5.03;;;2.43;;
74791;SDS011;63319;46.046;17.802;2022-10-23T17:23:31;6.10;;;2.77;;
74791;SDS011;63319;46.046;17.802;2022-10-23T17:26:38;4.20;;;2.20;;
74791;SDS011;63319;46.046;17.802;2022-10-23T17:29:42;5.75;;;2.70;;
74791;SDS011;63319;46.046;17.802;2022-10-23T17:32:46;5.55;;;2.65;;
74791;SDS011;63319;46.046;17.802;2022-10-23T17:35:51;5.43;;;2.90;;
74791;SDS011;63319;46.046;17.802;2022-10-23T17:38:57;6.37;;;3.07;;
74791;SDS011;63319;46.046;17.802;2022-10-23T17:42:05;4.10;;;2.35;;
74791;SDS011;63319;46.046;17.802;2022-10-23T17:45:10;5.35;;;2.88;;
74791;SDS011;63319;46.046;17.802;2022-10-23T17:48:15;5.35;;;2.63;;
74791;SDS011;63319;46.046;17.802;2022-10-23T17:51:23;5.07;;;2.87;;
74791;SDS011;63319;46.046;17.802;2022-10-23T17:54:29;6.40;;;2.67;;
74791;SDS011;63319;46.046;17.802;2022-10-23T17:57:34;4.30;;;2.53;;
74791;SDS011;63319;46.046;17.802;2022-10-23T18:00:39;5.05;;;2.60;;
74791;SDS011;63319;46.046;17.802;2022-10-23T18:03:43;8.75;;;2.75;;
74791;SDS011;63319;46.046;17.802;2022-10-23T18:06:51;5.53;;;2.73;;
74791;SDS011;63319;46.046;17.802;2022-10-23T18:09:56;6.23;;;3.13;;
74791;SDS011;63319;46.046;17.802;2022-10-23T18:13:01;5.85;;;2.92;;
74791;SDS011;63319;46.046;17.802;2022-10-23T18:16:06;5.07;;;2.78;;
74791;SDS011;63319;46.046;17.802;2022-10-23T18:19:15;4.75;;;2.40;;
74791;SDS011;63319;46.046;17.802;2022-10-23T18:22:20;5.47;;;2.73;;
74791;SDS011;63319;46.046;17.802;2022-10-23T18:25:24;5.20;;;2.87;;
74791;SDS011;63319;46.046;17.802;2022-10-23T18:28:28;4.32;;;2.45;;
74791;SDS011;63319;46.046;17.802;2022-10-23T18:31:35;4.82;;;2.30;;
74791;SDS011;63319;46.046;17.802;2022-10-23T18:35:02;4.80;;;2.58;;
74791;SDS011;63319;46.046;17.802;2022-10-23T18:38:08;4.90;;;2.50;;
74791;SDS011;63319;46.046;17.802;2022-10-23T18:41:14;4.40;;;2.60;;
74791;SDS011;63319;46.046;17.802;2022-10-23T18:44:22;4.93;;;2.60;;
74791;SDS011;63319;46.046;17.802;2022-10-23T18:47:30;4.70;;;2.53;;
74791;SDS011;63319;46.046;17.802;2022-10-23T18:50:36;5.18;;;3.05;;
74791;SDS011;63319;46.046;17.802;2022-10-23T18:53:43;4.97;;;2.50;;
74791;SDS011;63319;46.046;17.802;2022-10-23T18:56:50;4.97;;;2.60;;
74791;SDS011;63319;46.046;17.802;2022-10-23T18:59:55;4.85;;;2.60;;
74791;SDS011;63319;46.046;17.802;2022-10-23T19:02:59;5.15;;;2.75;;
74791;SDS011;63319;46.046;17.802;2022-10-23T19:06:04;5.20;;;3.10;;
74791;SDS011;63319;46.046;17.802;2022-10-23T19:09:11;4.97;;;2.60;;
74791;SDS011;63319;46.046;17.802;2022-10-23T19:12:16;4.70;;;2.67;;
74791;SDS011;63319;46.046;17.802;2022-10-23T19:15:21;5.07;;;2.60;;
74791;SDS011;63319;46.046;17.802;2022-10-23T19:18:25;4.50;;;2.30;;
74791;SDS011;63319;46.046;17.802;2022-10-23T19:21:30;5.15;;;2.97;;
74791;SDS011;63319;46.046;17.802;2022-10-23T19:24:47;4.20;;;2.50;;
74791;SDS011;63319;46.046;17.802;2022-10-23T19:27:59;5.00;;;2.70;;
74791;SDS011;63319;46.046;17.802;2022-10-23T19:31:04;6.18;;;2.75;;
74791;SDS011;63319;46.046;17.802;2022-10-23T19:34:15;5.45;;;3.10;;
74791;SDS011;63319;46.046;17.802;2022-10-23T19:37:22;5.50;;;3.00;;
74791;SDS011;63319;46.046;17.802;2022-10-23T19:40:26;6.87;;;3.10;;
74791;SDS011;63319;46.046;17.802;2022-10-23T19:43:30;4.60;;;2.60;;
74791;SDS011;63319;46.046;17.802;2022-10-23T19:46:36;6.03;;;2.95;;
74791;SDS011;63319;46.046;17.802;2022-10-23T19:49:42;5.38;;;2.70;;
74791;SDS011;63319;46.046;17.802;2022-10-23T19:52:46;5.15;;;3.00;;
74791;SDS011;63319;46.046;17.802;2022-10-23T19:56:04;5.90;;;3.10;;
74791;SDS011;63319;46.046;17.802;2022-10-23T19:59:10;6.63;;;3.20;;
74791;SDS011;63319;46.046;17.802;2022-10-23T20:02:26;5.40;;;3.00;;
74791;SDS011;63319;46.046;17.802;2022-10-23T20:05:34;5.38;;;2.90;;
74791;SDS011;63319;46.046;17.802;2022-10-23T20:08:38;6.00;;;2.78;;
74791;SDS011;63319;46.046;17.802;2022-10-23T20:11:42;6.77;;;3.10;;
74791;SDS011;63319;46.046;17.802;2022-10-23T20:14:49;4.93;;;2.60;;
74791;SDS011;63319;46.046;17.802;2022-10-23T20:17:54;4.22;;;2.45;;
74791;SDS011;63319;46.046;17.802;2022-10-23T20:20:59;4.95;;;2.60;;
74791;SDS011;63319;46.046;17.802;2022-10-23T20:24:04;5.93;;;3.25;;
74791;SDS011;63319;46.046;17.802;2022-10-23T20:27:09;5.20;;;2.77;;
74791;SDS011;63319;46.046;17.802;2022-10-23T20:30:15;5.40;;;2.63;;
74791;SDS011;63319;46.046;17.802;2022-10-23T20:33:20;4.90;;;2.70;;